Domov               UVHVVR             MKGP            O straneh              
ZDRAVSTVENO VARSTVO RASTLIN
  MREŽA AGROMET. POSTAJ
 ► PROGNOSTIČNA OBVESTILA
AGROMETEOROLOŠKI PODATKI -
ARSO
OBVLADOVANJE TVEGANJ ZARADI
NEUGODNIH VREMENSKIH RAZMER
  ► NARAVNE NESREČE
  ► SUŠA/MOČA
  ► NAMAKANJE
  ► ŽLED (gozdarstvo)
KARTOGRAFSKI PRIKAZI
SPLETNE POVEZAVE
PROJEKTI IN PUBLIKACIJE

AGROMETEOROLOŠKA MREŽA: VREMENSKE POSTAJE IN FENOLOŠKA OPAZOVANJA

Pregled podatkov za lokacijo Šentjakob, meteorološka postaja 49993

Pregled senzorjev na lokaciji

ID Ime Zadnja
vrednost
Datum
zadnje
spremembe
Tip
senzorja
4010 Relativna vlaga 20 cm (% RH) 81,5 % RH 24.10.2017 11:00 Generic 0 - 100 %
4011 Temperatura 20 cm ( °C) 13,15 °C 24.10.2017 11:00 Generic -40 - +60 °C
4012 Relativna vlaga 2 m (% RH) 55,82 % RH 24.10.2017 11:00 Generic 0 - 100 %
4013 Temperatura 2 m ( °C) 13,62 °C 24.10.2017 11:00 Generic -40 - +60 °C
4014 Omočenost lista (U) 0 U 24.10.2017 11:00 A730WET
4015 Padavine 0.2 mm (mm) 0 mm 24.10.2017 10:59 Generic 0.2 mm
4182 Omočenost lista 20 cm (U) 4 U 24.10.2017 11:00 A730WET

Pregled podatkov zadnjih 24 ur

Zap.
št.
Datum in čas Šentjakob
Omočenost
lista
Omočenost
lista
20
cm
Padavine
0.2
mm
Relativna
vlaga
2
m
Relativna
vlaga
20
cm
Temperatura
2
m
Temperatura
20
cm
0 24.10.2017 10:00 0 4 0 55,82 81,5 13,62 13,15
1 24.10.2017 09:30 0 10 0 58,57 91,48 12,73 10,93
2 24.10.2017 09:00 0 10 0 67,35 100 11,08 8,62
3 24.10.2017 08:30 10 10 0 78,11 100 8,52 6,57
4 24.10.2017 08:00 10 10 0 89,11 100 5,76 3,91
5 24.10.2017 07:30 10 10 0 94,66 100 3,46 1,57
6 24.10.2017 07:00 10 10 0 96,45 100 2,19 0,26
7 24.10.2017 06:30 10 10 0 94,58 100 2,89 0,58
8 24.10.2017 06:00 10 10 0 93,56 100 3,19 0,79
9 24.10.2017 05:30 10 10 0 90,5 100 4,05 1,2
10 24.10.2017 05:00 7 10 0 90,12 100 4,09 1,33
11 24.10.2017 04:30 3 10 0 88,75 100 4,41 1,44
12 24.10.2017 04:00 1 10 0 85,89 100 5,04 1,76
13 24.10.2017 03:30 1 10 0 84,21 100 5,6 2,1
14 24.10.2017 03:00 1 10 0 85,57 99,96 5,46 2
15 24.10.2017 02:30 1 10 0 84,29 99,99 5,92 2,76
16 24.10.2017 02:00 1 10 0 85,49 99,94 5,92 3,21
17 24.10.2017 01:30 0 10 0 85,76 99,93 6,19 3,78
18 24.10.2017 01:00 1 10 0 88,27 99,42 6,12 4,06
19 24.10.2017 00:30 0 10 0 85,69 99,28 6,86 4,83
20 24.10.2017 00:00 0 8 0 86,25 98,61 6,91 4,99
21 23.10.2017 23:30 0 3 0 79,72 97,84 7,92 5,59
22 23.10.2017 23:00 0 3 0 81,16 98,23 7,81 5,62
23 23.10.2017 22:30 0 1 0 82,33 95,49 7,88 6,16
24 23.10.2017 22:00 0 0 0 67,22 88,14 9,92 7,27
25 23.10.2017 21:30 0 1 0 70,06 94,82 9,29 6,22
26 23.10.2017 21:00 0 1 0 81,87 96,98 8,18 6,25
27 23.10.2017 20:30 0 0 0 78,77 93,38 8,68 7,04
28 23.10.2017 20:00 0 0 0 53,12 75,36 11,96 8,87
29 23.10.2017 19:30 0 0 0 66,83 87,44 10,29 7,92
30 23.10.2017 19:00 0 0 0 42,98 69,46 13,1 9,23
31 23.10.2017 18:30 0 0 0 45,9 77,63 12,47 8,11
32 23.10.2017 18:00 0 0 0 43,26 72,15 13 9,11
33 23.10.2017 17:30 0 0 0 43,25 73,77 13,17 9,01
34 23.10.2017 17:00 0 2 0 43,78 75,57 13,29 9,36
35 23.10.2017 16:30 0 10 0 69,76 90,65 11,36 9,13
36 23.10.2017 16:00 0 10 0 90,77 98,33 10,12 9,63
37 23.10.2017 15:30 0 10 0 90,31 98,04 10,23 10,25
38 23.10.2017 15:00 0 10 0 88,79 97,23 10,23 10,36
39 23.10.2017 14:30 0 10 0 88,24 96 10,23 10,7
40 23.10.2017 14:00 0 10 0 87,75 95,97 10,12 10,9
41 23.10.2017 13:30 0 10 0 87,23 95,52 9,97 10,55
42 23.10.2017 13:00 0 10 0 88,11 96,75 9,68 10,15
43 23.10.2017 12:30 0 10 0 87,3 96,74 9,81 10,3
44 23.10.2017 12:00 0 10 0 86,68 98,15 9,61 10,3
45 23.10.2017 11:30 0 10 0 86,66 100 9,53 10,12
© 2011 Ministrstvo za kmetijstvo, gozdarstvo in prehrano. Vse pravice pridržane.